createdAt,value
2019-04-22T00:01:31.173Z,24.63
2019-04-22T00:04:03.612Z,20.57
2019-04-22T00:06:51.651Z,21.57
2019-04-22T00:09:24.098Z,22.05
2019-04-22T00:12:02.198Z,19.35
2019-04-22T00:14:24.884Z,21.40
2019-04-22T00:17:07.265Z,20.40
2019-04-22T00:19:36.174Z,21.02
2019-04-22T00:22:11.800Z,20.23
2019-04-22T00:24:35.509Z,20.82
2019-04-22T00:27:05.223Z,27.85
2019-04-22T00:29:55.850Z,22.40
2019-04-22T00:32:15.493Z,24.87
2019-04-22T00:34:51.913Z,19.75
2019-04-22T00:37:25.209Z,23.47
2019-04-22T00:39:51.446Z,22.30
2019-04-22T00:42:21.184Z,22.55
2019-04-22T00:44:51.763Z,19.35
2019-04-22T00:47:27.910Z,23.95
2019-04-22T00:50:12.342Z,25.65
2019-04-22T00:52:30.625Z,23.25
2019-04-22T00:54:59.462Z,22.42
2019-04-22T00:57:29.627Z,24.25
2019-04-22T01:00:00.295Z,28.30
2019-04-22T01:02:34.660Z,22.32
2019-04-22T01:05:04.115Z,26.57
2019-04-22T01:07:32.165Z,24.12
2019-04-22T01:10:09.269Z,26.95
2019-04-22T01:12:39.486Z,21.37
2019-04-22T01:15:07.315Z,21.68
2019-04-22T01:17:43.432Z,21.65
2019-04-22T01:20:23.899Z,21.20
2019-04-22T01:22:36.330Z,25.35
2019-04-22T01:25:06.031Z,23.35
2019-04-22T01:27:36.149Z,21.20
2019-04-22T01:30:07.162Z,24.55
2019-04-22T01:35:08.445Z,22.00
2019-04-22T01:37:45.921Z,22.20
2019-04-22T01:40:25.328Z,20.92
2019-04-22T01:45:26.725Z,24.25
2019-04-22T01:48:00.493Z,22.48
2019-04-22T01:50:30.637Z,23.62
2019-04-22T01:53:06.349Z,23.07
2019-04-22T01:58:02.315Z,21.82
2019-04-22T02:00:38.643Z,24.87
2019-04-22T02:03:12.475Z,28.17
2019-04-22T02:05:37.623Z,23.50
2019-04-22T02:08:31.627Z,32.28
2019-04-22T02:10:54.795Z,24.40
2019-04-22T02:13:30.662Z,25.88
2019-04-22T02:16:03.522Z,26.10
2019-04-22T02:18:34.462Z,27.45
2019-04-22T02:21:00.148Z,27.82
2019-04-22T02:26:07.567Z,28.30
2019-04-22T02:32:19.468Z,23.95
2019-04-22T02:41:26.177Z,24.92
2019-04-22T02:49:01.860Z,25.75
2019-04-22T02:51:21.961Z,24.55
2019-04-22T03:01:39.620Z,28.42
2019-04-22T03:09:16.379Z,28.73
2019-04-22T03:11:59.198Z,26.57
2019-04-22T03:14:08.698Z,30.55
2019-04-22T03:16:37.507Z,26.20
2019-04-22T03:19:17.741Z,25.08
2019-04-22T03:21:54.565Z,22.90
2019-04-22T03:26:43.331Z,23.90
2019-04-22T03:29:28.759Z,28.50
2019-04-22T03:32:20.559Z,26.80
2019-04-22T03:35:16.143Z,24.57
2019-04-22T03:39:37.706Z,26.52
2019-04-22T03:42:05.830Z,30.60
2019-04-22T03:49:38.935Z,29.48
2019-04-22T03:52:10.751Z,27.32
2019-04-22T03:54:39.555Z,24.98
2019-04-22T04:00:15.728Z,30.60
2019-04-22T04:07:38.368Z,26.48
2019-04-22T04:14:46.600Z,28.98
2019-04-22T04:17:21.830Z,30.08
2019-04-22T04:19:59.879Z,23.42
2019-04-22T04:27:41.446Z,27.75
2019-04-22T04:37:40.911Z,24.92
2019-04-22T04:47:43.803Z,25.10
2019-04-22T04:50:06.859Z,23.98
2019-04-22T04:55:12.348Z,31.17
2019-04-22T05:00:32.631Z,27.15
2019-04-22T05:03:13.871Z,24.87
2019-04-22T05:05:14.420Z,31.68
2019-04-22T05:07:40.890Z,23.62
2019-04-22T05:10:37.404Z,22.87
2019-04-22T05:15:14.336Z,33.13
2019-04-22T05:17:50.651Z,24.75
2019-04-22T05:20:33.726Z,31.20
2019-04-22T05:22:39.738Z,29.27
2019-04-22T05:25:15.303Z,27.62
2019-04-22T05:30:23.192Z,31.70
2019-04-22T05:32:44.564Z,36.08
2019-04-22T05:35:14.483Z,30.00
2019-04-22T05:37:50.552Z,29.12
2019-04-22T05:40:22.098Z,29.30
2019-04-22T05:42:49.462Z,25.65
2019-04-22T05:45:21.641Z,24.52
2019-04-22T05:47:52.303Z,28.25
2019-04-22T05:50:20.429Z,25.92
2019-04-22T05:52:55.296Z,29.25
2019-04-22T05:55:43.593Z,26.93
2019-04-22T05:57:59.727Z,31.52
2019-04-22T06:05:34.363Z,26.52
2019-04-22T06:08:04.203Z,25.77
2019-04-22T06:13:06.581Z,30.20
2019-04-22T06:15:39.072Z,28.67
2019-04-22T06:23:30.694Z,25.77
2019-04-22T06:28:38.743Z,27.10
2019-04-22T06:31:02.554Z,29.45
2019-04-22T06:33:34.504Z,25.40
2019-04-22T06:36:03.693Z,28.25
2019-04-22T06:41:08.590Z,26.90
2019-04-22T06:43:35.235Z,28.60
2019-04-22T06:46:08.387Z,25.35
2019-04-22T06:48:34.661Z,23.98
2019-04-22T06:51:08.119Z,24.63
2019-04-22T06:56:11.158Z,22.40
2019-04-22T06:58:39.697Z,24.12
2019-04-22T07:01:19.634Z,23.87
2019-04-22T07:06:19.612Z,23.18
2019-04-22T07:11:18.839Z,23.40
2019-04-22T07:14:00.120Z,23.55
2019-04-22T07:16:28.863Z,20.23
2019-04-22T07:18:54.889Z,21.68
2019-04-22T07:21:26.062Z,23.05
2019-04-22T07:24:17.896Z,22.02
2019-04-22T07:26:24.164Z,20.17
2019-04-22T07:29:06.149Z,17.32
2019-04-22T07:31:45.074Z,15.13
2019-04-22T07:34:08.170Z,14.58
2019-04-22T07:39:06.636Z,18.30
2019-04-22T07:41:38.396Z,16.37
2019-04-22T07:44:29.570Z,14.58
2019-04-22T07:46:41.751Z,21.00
2019-04-22T07:49:10.610Z,17.87
2019-04-22T07:54:13.317Z,14.98
2019-04-22T07:56:53.871Z,16.96
2019-04-22T07:59:26.497Z,17.70
2019-04-22T08:01:48.374Z,15.65
2019-04-22T08:04:44.784Z,15.65
2019-04-22T08:06:58.928Z,17.20
2019-04-22T08:09:27.785Z,21.07
2019-04-22T08:11:53.868Z,14.87
2019-04-22T08:14:31.398Z,14.90
2019-04-22T08:17:14.164Z,20.15
2019-04-22T08:19:28.076Z,14.30
2019-04-22T08:22:07.924Z,15.50
2019-04-22T08:24:35.915Z,14.28
2019-04-22T08:27:04.546Z,13.08
2019-04-22T08:29:37.201Z,20.45
2019-04-22T08:32:05.097Z,13.35
2019-04-22T08:34:47.584Z,13.62
2019-04-22T08:37:35.637Z,12.55
2019-04-22T08:39:39.146Z,29.75
2019-04-22T08:42:13.660Z,26.00
2019-04-22T08:47:19.106Z,11.12
2019-04-22T08:49:53.032Z,13.27
2019-04-22T08:52:17.549Z,11.80
2019-04-22T08:54:45.004Z,18.10
2019-04-22T08:57:18.393Z,10.70
2019-04-22T08:59:49.024Z,13.72
2019-04-22T09:04:52.151Z,19.17
2019-04-22T09:09:50.658Z,13.27
2019-04-22T09:12:34.764Z,11.75
2019-04-22T09:14:52.109Z,12.98
2019-04-22T09:17:31.830Z,13.83
2019-04-22T09:20:02.237Z,11.35
2019-04-22T09:22:41.163Z,11.55
2019-04-22T09:24:57.407Z,13.13
2019-04-22T09:29:58.467Z,10.48
2019-04-22T09:32:36.373Z,12.28
2019-04-22T09:35:02.971Z,13.90
2019-04-22T09:37:40.762Z,12.03
2019-04-22T09:42:39.640Z,13.08
2019-04-22T09:45:13.255Z,9.50
2019-04-22T09:50:21.521Z,10.32
2019-04-22T09:52:49.622Z,10.85
2019-04-22T09:57:46.034Z,16.85
2019-04-22T10:00:46.365Z,11.85
2019-04-22T10:03:16.036Z,13.20
2019-04-22T10:05:41.135Z,8.50
2019-04-22T10:08:21.996Z,14.85
2019-04-22T10:10:44.678Z,12.55
2019-04-22T10:13:18.700Z,7.10
2019-04-22T10:15:52.213Z,12.30
2019-04-22T10:18:16.264Z,6.62
2019-04-22T10:20:49.373Z,8.55
2019-04-22T10:23:21.683Z,13.90
2019-04-22T10:25:52.572Z,11.33
2019-04-22T10:28:24.296Z,10.18
2019-04-22T10:30:52.842Z,6.03
2019-04-22T10:33:20.841Z,9.35
2019-04-22T10:35:32.220Z,6.45
2019-04-22T10:38:01.222Z,9.45
2019-04-22T10:40:36.449Z,5.33
2019-04-22T10:43:09.593Z,4.08
2019-04-22T10:45:39.793Z,5.67
2019-04-22T10:48:10.455Z,3.60
2019-04-22T10:50:46.607Z,14.63
2019-04-22T10:53:17.757Z,5.83
2019-04-22T10:55:49.875Z,5.30
2019-04-22T10:58:20.883Z,5.17
2019-04-22T11:00:52.078Z,9.25
2019-04-22T11:03:22.502Z,7.87
2019-04-22T11:05:53.918Z,13.70
2019-04-22T11:08:32.664Z,7.55
2019-04-22T11:11:07.124Z,6.40
2019-04-22T11:13:26.134Z,6.12
2019-04-22T11:15:55.943Z,4.78
2019-04-22T11:18:25.453Z,8.93
2019-04-22T11:20:55.742Z,7.35
2019-04-22T11:23:26.924Z,4.70
2019-04-22T11:25:57.725Z,10.50
2019-04-22T11:28:27.818Z,9.30
2019-04-22T11:30:58.720Z,5.87
2019-04-22T11:33:28.468Z,6.00
2019-04-22T11:35:57.897Z,6.55
2019-04-22T11:38:28.722Z,8.15
2019-04-22T11:40:59.999Z,7.72
2019-04-22T11:43:30.483Z,5.25
2019-04-22T11:46:01.298Z,10.35
2019-04-22T11:48:31.139Z,17.65
2019-04-22T11:51:01.944Z,7.45
2019-04-22T11:53:31.754Z,7.58
2019-04-22T11:56:02.673Z,12.25
2019-04-22T11:58:35.277Z,6.62
2019-04-22T12:01:06.616Z,5.47
2019-04-22T12:03:37.870Z,7.20
2019-04-22T12:06:08.386Z,11.68
2019-04-22T12:08:39.685Z,5.85
2019-04-22T12:11:09.901Z,6.85
2019-04-22T12:13:42.022Z,8.73
2019-04-22T12:16:11.700Z,6.70
2019-04-22T12:18:41.177Z,5.53
2019-04-22T12:21:10.989Z,7.58
2019-04-22T12:23:41.270Z,9.20
2019-04-22T12:26:15.052Z,6.90
2019-04-22T12:28:42.142Z,5.83
2019-04-22T12:31:11.709Z,4.83
2019-04-22T12:33:41.371Z,8.43
2019-04-22T12:36:12.648Z,6.28
2019-04-22T12:38:42.366Z,12.95
2019-04-22T12:41:13.668Z,7.30
2019-04-22T12:43:43.243Z,4.28
2019-04-22T12:46:12.634Z,7.45
2019-04-22T12:48:43.622Z,6.55
2019-04-22T12:51:13.377Z,4.83
2019-04-22T12:53:44.544Z,7.03
2019-04-22T12:56:15.418Z,7.58
2019-04-22T12:58:45.771Z,4.65
2019-04-22T13:01:15.405Z,8.53
2019-04-22T13:03:44.873Z,7.72
2019-04-22T13:06:14.363Z,12.25
2019-04-22T13:08:45.579Z,24.72
2019-04-22T13:11:18.495Z,10.58
2019-04-22T13:13:47.087Z,5.28
2019-04-22T13:16:17.490Z,6.75
2019-04-22T13:18:53.787Z,9.33
2019-04-22T13:21:18.641Z,15.43
2019-04-22T13:23:48.882Z,19.85
2019-04-22T13:26:18.990Z,16.15
2019-04-22T13:28:49.243Z,8.93
2019-04-22T13:31:20.739Z,15.78
2019-04-22T13:33:51.642Z,15.75
2019-04-22T13:36:23.739Z,10.93
2019-04-22T13:38:53.117Z,7.25
2019-04-22T13:41:31.788Z,9.95
2019-04-22T13:43:54.066Z,11.85
2019-04-22T13:46:24.076Z,16.55
2019-04-22T13:49:25.185Z,7.58
2019-04-22T13:51:52.481Z,9.45
2019-04-22T13:56:48.009Z,7.85
2019-04-22T13:59:09.237Z,4.70
2019-04-22T14:01:40.613Z,4.85
2019-04-22T14:04:12.591Z,9.70
2019-04-22T14:06:42.871Z,6.37
2019-04-22T14:09:13.690Z,12.13
2019-04-22T14:11:49.309Z,10.43
2019-04-22T14:14:15.608Z,5.60
2019-04-22T14:16:46.618Z,5.10
2019-04-22T14:19:16.465Z,5.95
2019-04-22T14:21:47.489Z,5.05
2019-04-22T14:24:17.868Z,10.58
2019-04-22T14:27:01.656Z,5.53
2019-04-22T14:29:19.713Z,5.33
2019-04-22T14:32:01.124Z,5.03
2019-04-22T14:34:20.869Z,7.28
2019-04-22T14:36:51.141Z,6.50
2019-04-22T14:39:22.007Z,7.50
2019-04-22T14:42:11.618Z,7.15
2019-04-22T14:45:13.435Z,6.25
2019-04-22T14:47:23.712Z,7.22
2019-04-22T14:49:47.313Z,7.92
2019-04-22T14:52:21.533Z,12.53
2019-04-22T14:54:41.632Z,6.45
2019-04-22T14:56:58.993Z,5.92
2019-04-22T14:59:29.188Z,8.03
2019-04-22T15:01:59.451Z,5.90
2019-04-22T15:04:29.078Z,5.28
2019-04-22T15:06:59.067Z,7.62
2019-04-22T15:09:29.990Z,6.22
2019-04-22T15:12:13.421Z,7.60
2019-04-22T15:14:33.155Z,11.73
2019-04-22T15:17:07.143Z,6.03
2019-04-22T15:19:41.178Z,6.90
2019-04-22T15:22:10.614Z,5.20
2019-04-22T15:24:40.700Z,6.35
2019-04-22T15:27:10.672Z,9.85
2019-04-22T15:29:41.177Z,11.83
2019-04-22T15:32:11.723Z,5.08
2019-04-22T15:34:41.630Z,9.98
2019-04-22T15:37:11.926Z,5.20
2019-04-22T15:39:41.798Z,5.22
2019-04-22T15:42:18.355Z,4.85
2019-04-22T15:44:42.356Z,7.00
2019-04-22T15:47:13.072Z,6.72
2019-04-22T15:49:42.932Z,5.95
2019-04-22T15:52:12.623Z,5.97
2019-04-22T15:54:43.607Z,8.90
2019-04-22T15:57:14.836Z,6.92
2019-04-22T16:00:02.511Z,5.58
2019-04-22T16:02:16.643Z,7.67
2019-04-22T16:04:46.566Z,5.83
2019-04-22T16:07:17.207Z,9.55
2019-04-22T16:09:47.887Z,5.42
2019-04-22T16:12:25.926Z,4.53
2019-04-22T16:14:54.566Z,4.63
2019-04-22T16:17:20.424Z,4.20
2019-04-22T16:19:50.930Z,10.75
2019-04-22T16:22:23.165Z,5.55
2019-04-22T16:24:54.151Z,8.15
2019-04-22T16:27:26.302Z,6.25
2019-04-22T16:29:57.184Z,11.03
2019-04-22T16:32:27.798Z,6.17
2019-04-22T16:34:58.685Z,9.65
2019-04-22T16:37:28.581Z,5.75
2019-04-22T16:39:58.931Z,5.17
2019-04-22T16:42:38.105Z,7.85
2019-04-22T16:44:59.713Z,4.28
2019-04-22T16:47:29.122Z,5.03
2019-04-22T16:49:59.613Z,8.00
2019-04-22T16:52:30.294Z,9.80
2019-04-22T16:55:00.997Z,6.78
2019-04-22T16:57:30.409Z,6.25
2019-04-22T17:00:00.482Z,6.80
2019-04-22T17:02:52.132Z,5.30
2019-04-22T17:05:31.952Z,6.33
2019-04-22T17:08:02.524Z,11.55
2019-04-22T17:10:33.541Z,6.17
2019-04-22T17:13:07.846Z,6.90
2019-04-22T17:15:35.278Z,6.90
2019-04-22T17:18:05.510Z,5.35
2019-04-22T17:20:36.055Z,8.15
2019-04-22T17:23:05.631Z,10.03
2019-04-22T17:25:36.210Z,8.73
2019-04-22T17:28:05.820Z,10.45
2019-04-22T17:30:35.978Z,8.25
2019-04-22T17:33:05.579Z,7.83
2019-04-22T17:35:36.042Z,8.33
2019-04-22T17:38:16.701Z,15.65
2019-04-22T17:40:52.241Z,9.90
2019-04-22T17:43:41.314Z,7.00
2019-04-22T17:46:03.092Z,7.20
2019-04-22T17:48:46.634Z,7.87
2019-04-22T17:51:29.891Z,20.92
2019-04-22T17:53:59.647Z,16.25
2019-04-22T17:56:27.630Z,12.05
2019-04-22T17:58:58.758Z,11.53
2019-04-22T18:01:29.911Z,11.35
2019-04-22T18:03:47.400Z,9.70
2019-04-22T18:06:39.223Z,7.75
2019-04-22T18:09:01.842Z,11.80
2019-04-22T18:11:39.591Z,8.95
2019-04-22T18:14:26.054Z,5.85
2019-04-22T18:16:37.088Z,9.08
2019-04-22T18:19:10.100Z,10.15
2019-04-22T18:21:36.191Z,6.97
2019-04-22T18:23:55.331Z,9.90
2019-04-22T18:26:43.534Z,11.08
2019-04-22T18:29:11.559Z,11.63
2019-04-22T18:31:37.171Z,8.25
2019-04-22T18:34:08.351Z,7.30
2019-04-22T18:36:43.645Z,6.53
2019-04-22T18:39:22.457Z,4.62
2019-04-22T18:41:46.141Z,7.22
2019-04-22T18:44:23.521Z,9.03
2019-04-22T18:46:51.265Z,11.08
2019-04-22T18:49:18.560Z,5.72
2019-04-22T18:52:05.779Z,8.58
2019-04-22T18:54:48.428Z,10.50
2019-04-22T18:57:18.259Z,11.63
2019-04-22T18:59:36.167Z,8.45
2019-04-22T19:02:08.555Z,15.85
2019-04-22T19:04:44.318Z,13.25
2019-04-22T19:07:36.848Z,12.50
2019-04-22T19:10:04.890Z,17.73
2019-04-22T19:12:34.407Z,17.45
2019-04-22T19:15:04.149Z,26.62
2019-04-22T19:17:40.453Z,22.98
2019-04-22T19:20:13.322Z,27.55
2019-04-22T19:22:36.727Z,20.05
2019-04-22T19:24:59.894Z,18.60
2019-04-22T19:27:35.951Z,13.95
2019-04-22T19:30:14.289Z,15.00
2019-04-22T19:32:42.015Z,13.28
2019-04-22T19:35:11.571Z,14.30
2019-04-22T19:37:38.400Z,11.10
2019-04-22T19:40:20.585Z,31.10
2019-04-22T19:42:52.630Z,20.35
2019-04-22T19:45:14.658Z,8.80
2019-04-22T19:47:50.107Z,7.75
2019-04-22T19:50:24.476Z,9.65
2019-04-22T19:52:51.384Z,11.03
2019-04-22T19:55:27.904Z,14.28
2019-04-22T19:57:48.945Z,11.03
2019-04-22T20:00:33.986Z,10.23
2019-04-22T20:03:16.546Z,9.78
2019-04-22T20:05:50.554Z,6.25
2019-04-22T20:08:22.900Z,12.53
2019-04-22T20:10:48.867Z,11.15
2019-04-22T20:13:24.336Z,6.42
2019-04-22T20:15:43.273Z,9.10
2019-04-22T20:18:41.930Z,7.60
2019-04-22T20:20:59.645Z,9.18
2019-04-22T20:23:18.213Z,6.65
2019-04-22T20:25:50.978Z,11.77
2019-04-22T20:28:32.672Z,9.93
2019-04-22T20:30:55.408Z,7.35
2019-04-22T20:33:43.097Z,8.05
2019-04-22T20:36:03.738Z,8.55
2019-04-22T20:38:30.735Z,11.33
2019-04-22T20:40:58.223Z,7.85
2019-04-22T20:43:44.830Z,5.65
2019-04-22T20:46:05.269Z,10.78
2019-04-22T20:48:41.147Z,7.85
2019-04-22T20:51:06.539Z,7.92
2019-04-22T20:53:46.053Z,5.35
2019-04-22T20:56:09.908Z,9.57
2019-04-22T20:58:38.782Z,6.20
2019-04-22T21:01:05.265Z,6.75
2019-04-22T21:03:33.303Z,8.28
2019-04-22T21:06:11.741Z,7.03
2019-04-22T21:08:48.633Z,9.25
2019-04-22T21:11:15.337Z,6.10
2019-04-22T21:13:41.098Z,6.90
2019-04-22T21:16:22.283Z,5.60
2019-04-22T21:18:44.660Z,9.58
2019-04-22T21:21:29.669Z,7.58
2019-04-22T21:23:47.702Z,5.10
2019-04-22T21:26:24.033Z,6.03
2019-04-22T21:28:53.829Z,13.13
2019-04-22T21:31:30.798Z,8.48
2019-04-22T21:34:01.132Z,10.38
2019-04-22T21:38:59.133Z,8.73
2019-04-22T21:41:30.685Z,6.78
2019-04-22T21:44:05.509Z,12.47
2019-04-22T21:46:35.240Z,7.35
2019-04-22T21:49:09.405Z,6.47
2019-04-22T21:51:39.750Z,8.48
2019-04-22T21:54:11.929Z,7.30
2019-04-22T21:57:01.519Z,8.43
2019-04-22T21:59:27.054Z,7.83
2019-04-22T22:02:04.137Z,5.92
2019-04-22T22:04:30.315Z,9.08
2019-04-22T22:06:57.137Z,5.90
2019-04-22T22:09:37.692Z,6.50
2019-04-22T22:12:05.220Z,9.88
2019-04-22T22:14:39.722Z,8.85
2019-04-22T22:17:02.019Z,10.08
2019-04-22T22:19:41.939Z,11.35
2019-04-22T22:22:28.132Z,11.22
2019-04-22T22:24:48.334Z,12.47
2019-04-22T22:27:17.217Z,9.45
2019-04-22T22:32:16.546Z,10.53
2019-04-22T22:34:46.506Z,8.35
2019-04-22T22:37:09.805Z,9.35
2019-04-22T22:39:39.286Z,10.38
2019-04-22T22:41:59.677Z,11.80
2019-04-22T22:44:38.017Z,13.13
2019-04-22T22:47:18.279Z,10.28
2019-04-22T22:49:53.127Z,8.53
2019-04-22T22:52:46.849Z,11.80
2019-04-22T22:54:58.931Z,7.92
2019-04-22T22:59:55.730Z,7.45
2019-04-22T23:02:28.770Z,15.85
2019-04-22T23:05:05.869Z,8.13
2019-04-22T23:07:37.414Z,8.55
2019-04-22T23:10:01.708Z,7.15
2019-04-22T23:12:40.538Z,10.90
2019-04-22T23:15:07.891Z,6.78
2019-04-22T23:17:22.295Z,7.50
2019-04-22T23:19:50.350Z,10.32
2019-04-22T23:22:26.784Z,8.38
2019-04-22T23:25:16.040Z,6.20
2019-04-22T23:30:32.197Z,15.23
2019-04-22T23:33:09.993Z,8.70
2019-04-22T23:35:56.605Z,7.93
2019-04-22T23:38:25.668Z,7.47
2019-04-22T23:41:00.157Z,7.70
2019-04-22T23:43:32.777Z,8.38
2019-04-22T23:46:05.790Z,7.70
2019-04-22T23:48:30.251Z,7.85
2019-04-22T23:51:13.604Z,8.78
2019-04-22T23:56:13.577Z,10.03
